Time;durP1;ratioP1;P1;durP2;ratioP2;P2;SDS_P1;SDS_P2;PMS_P1;PMS_P2;Temp;Humidity;BMP_temperature;BMP_pressure;BME280_temperature;BME280_humidity;BME280_pressure;Samples;Min_cycle;Max_cycle;Signal;HPM_P1;HPM_P2
2022/04/22 00:02:24;;;;;;;;;;;;;;;21.94;26.96;97797.16;5058325;28;922;-77
2022/04/22 00:04:50;;;;;;;;;;;;;;;22.15;26.79;97788.00;5058896;28;1133;-77
2022/04/22 00:07:15;;;;;;;;;;;;;;;21.60;27.63;97775.94;5058369;28;944;-76
2022/04/22 00:09:40;;;;;;;;;;;;;;;21.28;28.08;97783.31;5058492;28;1909;-76
2022/04/22 00:12:06;;;;;;;;;;;;;;;21.16;28.42;97788.94;5058554;28;943;-77
2022/04/22 00:14:32;;;;;;;;;;;;;;;21.47;28.28;97783.63;5058072;28;866;-76
2022/04/22 00:16:57;;;;;;;;;;;;;;;21.77;27.32;97779.47;5058522;28;920;-77
2022/04/22 00:19:23;;;;;;;;;;;;;;;22.14;26.72;97772.25;5057914;28;938;-77
2022/04/22 00:21:48;;;;;;;;;;;;;;;21.85;26.94;97781.63;5058110;28;1055;-76
2022/04/22 00:24:14;;;;;;;;;;;;;;;21.27;27.89;97780.94;5058061;28;1203;-77
2022/04/22 00:26:40;;;;;;;;;;;;;;;21.21;28.05;97774.22;5075563;28;907;-77
2022/04/22 00:29:05;;;;;;;;;;;;;;;21.58;28.01;97772.75;5075544;28;1898;-77
2022/04/22 00:31:31;;;;;;;;;;;;;;;22.02;27.35;97778.69;5076016;28;921;-76
2022/04/22 00:33:57;;;;;;;;;;;;;;;22.14;27.10;97774.31;5075320;28;966;-77
2022/04/22 00:36:22;;;;;;;;;;;;;;;21.53;27.81;97776.16;5075731;28;978;-76
2022/04/22 00:38:48;;;;;;;;;;;;;;;21.40;27.80;97772.50;5075580;28;990;-76
2022/04/22 00:41:13;;;;;;;;;;;;;;;21.11;28.21;97781.00;5075474;28;963;-77
2022/04/22 00:43:42;;;;;;;;;;;;;;;21.33;28.50;97777.13;5075505;28;939;-75
2022/04/22 00:46:08;;;;;;;;;;;;;;;21.94;27.40;97783.00;5075068;28;1012;-77
2022/04/22 00:48:33;;;;;;;;;;;;;;;22.20;26.76;97778.16;5075308;28;991;-76
2022/04/22 00:50:59;;;;;;;;;;;;;;;21.81;27.27;97780.97;5074863;28;1914;-76
2022/04/22 00:53:25;;;;;;;;;;;;;;;21.30;28.11;97782.91;5054068;28;901;-76
2022/04/22 00:55:50;;;;;;;;;;;;;;;21.06;28.52;97779.50;5055108;28;987;-77
2022/04/22 00:58:16;;;;;;;;;;;;;;;21.19;28.62;97766.19;5054970;28;1034;-76
2022/04/22 01:00:41;;;;;;;;;;;;;;;21.66;27.71;97774.16;5054921;28;978;-77
2022/04/22 01:03:07;;;;;;;;;;;;;;;22.00;27.11;97775.53;5037934;28;1026;-77
2022/04/22 01:11:00;;;;;;;;;;;;;;;21.21;28.39;97780.69;5034712;28;1990;-77
2022/04/22 01:13:26;;;;;;;;;;;;;;;21.35;28.39;97775.88;5034849;28;939;-76
2022/04/22 01:15:51;;;;;;;;;;;;;;;21.82;27.50;97774.06;5034736;28;1029;-77
2022/04/22 01:18:17;;;;;;;;;;;;;;;22.16;26.99;97766.91;5034689;28;943;-76
2022/04/22 01:20:42;;;;;;;;;;;;;;;21.43;28.03;97760.28;5054550;28;977;-76
2022/04/22 01:23:08;;;;;;;;;;;;;;;21.21;28.38;97760.09;5054416;28;1219;-76
2022/04/22 01:25:33;;;;;;;;;;;;;;;21.10;28.55;97771.72;5054431;28;936;-77
2022/04/22 01:27:59;;;;;;;;;;;;;;;21.66;27.92;97762.81;5054723;28;1054;-77
2022/04/22 01:30:24;;;;;;;;;;;;;;;22.03;27.15;97758.41;5054033;28;1989;-76
2022/04/22 01:32:50;;;;;;;;;;;;;;;21.98;27.10;97763.84;5074006;28;951;-77
2022/04/22 01:35:16;;;;;;;;;;;;;;;21.36;27.84;97758.47;5074151;28;919;-76
2022/04/22 01:37:43;;;;;;;;;;;;;;;21.11;28.05;97764.81;5074142;28;967;-77
2022/04/22 01:40:09;;;;;;;;;;;;;;;21.13;28.13;97767.97;5074288;28;1153;-77
2022/04/22 01:42:35;;;;;;;;;;;;;;;21.37;28.62;97767.75;5040878;28;1041;-77
2022/04/22 01:45:00;;;;;;;;;;;;;;;21.92;27.40;97763.63;5074154;28;1016;-77
2022/04/22 01:47:25;;;;;;;;;;;;;;;22.17;27.10;97762.03;5074138;28;928;-77
2022/04/22 01:49:52;;;;;;;;;;;;;;;21.51;27.90;97762.47;5074024;28;1992;-77
2022/04/22 01:52:17;;;;;;;;;;;;;;;21.25;28.13;97764.41;5060522;28;927;-77
2022/04/22 01:54:42;;;;;;;;;;;;;;;21.06;28.25;97760.50;5056587;28;896;-77
2022/04/22 01:57:08;;;;;;;;;;;;;;;21.42;28.63;97770.81;5056375;28;1009;-76
2022/04/22 01:59:33;;;;;;;;;;;;;;;21.76;27.77;97770.19;5055538;28;1220;-77
2022/04/22 02:01:59;;;;;;;;;;;;;;;22.04;27.20;97753.53;5070568;28;1005;-77
2022/04/22 02:04:25;;;;;;;;;;;;;;;21.70;27.45;97762.69;5073472;28;945;-77
2022/04/22 02:06:50;;;;;;;;;;;;;;;21.36;27.84;97761.28;5073690;28;977;-77
2022/04/22 02:09:16;;;;;;;;;;;;;;;21.21;28.44;97760.88;5073482;28;1968;-77
2022/04/22 02:11:41;;;;;;;;;;;;;;;20.98;28.71;97746.97;5073602;28;1012;-77
2022/04/22 02:14:07;;;;;;;;;;;;;;;21.80;27.73;97759.53;5073269;28;1029;-77
2022/04/22 02:16:33;;;;;;;;;;;;;;;21.98;27.37;97749.69;5073459;28;819;-77
2022/04/22 02:18:58;;;;;;;;;;;;;;;22.13;26.94;97742.34;5073400;28;991;-77
2022/04/22 02:21:24;;;;;;;;;;;;;;;21.41;27.93;97742.97;5040562;28;1208;-77
2022/04/22 02:23:49;;;;;;;;;;;;;;;21.19;28.20;97752.06;5073394;28;903;-77
2022/04/22 02:26:15;;;;;;;;;;;;;;;21.05;28.52;97755.28;5039919;28;971;-76
2022/04/22 02:28:40;;;;;;;;;;;;;;;21.52;28.40;97758.38;5073665;28;943;-77
2022/04/22 02:31:06;;;;;;;;;;;;;;;21.95;27.51;97753.41;5073072;28;1987;-77
2022/04/22 02:33:32;;;;;;;;;;;;;;;22.22;27.05;97748.09;5073277;28;948;-77
2022/04/22 02:35:59;;;;;;;;;;;;;;;21.43;28.13;97760.28;5060306;28;975;-77
2022/04/22 02:38:25;;;;;;;;;;;;;;;21.25;28.31;97758.75;5055714;28;975;-77
2022/04/22 02:46:19;;;;;;;;;;;;;;;21.79;27.75;97766.44;5073246;28;1020;-77
2022/04/22 02:48:44;;;;;;;;;;;;;;;22.08;26.99;97759.88;5073006;28;1018;-77
2022/04/22 02:51:10;;;;;;;;;;;;;;;21.72;27.42;97761.00;5073340;28;1917;-77
2022/04/22 02:53:35;;;;;;;;;;;;;;;21.23;28.10;97758.38;5073006;28;1040;-77
2022/04/22 02:56:01;;;;;;;;;;;;;;;21.13;28.20;97767.97;5072932;28;999;-77
2022/04/22 02:58:26;;;;;;;;;;;;;;;21.38;28.39;97770.13;5073080;28;1112;-78
2022/04/22 03:00:52;;;;;;;;;;;;;;;21.99;27.49;97756.94;5072545;28;923;-77
2022/04/22 03:03:17;;;;;;;;;;;;;;;22.17;26.99;97757.16;5072684;28;984;-77
2022/04/22 03:05:43;;;;;;;;;;;;;;;22.22;26.96;97759.44;5072962;28;952;-77
2022/04/22 03:08:08;;;;;;;;;;;;;;;21.81;27.30;97758.31;5073312;28;942;-78
2022/04/22 03:10:34;;;;;;;;;;;;;;;21.36;27.79;97752.81;5072904;28;1902;-77
2022/04/22 03:12:59;;;;;;;;;;;;;;;21.27;27.97;97756.25;5055713;28;896;-77
2022/04/22 03:15:25;;;;;;;;;;;;;;;21.26;28.46;97751.84;5055360;28;970;-77
2022/04/22 03:17:51;;;;;;;;;;;;;;;21.66;27.98;97750.69;5059540;28;901;-77
2022/04/22 03:20:16;;;;;;;;;;;;;;;21.94;27.34;97754.69;5059678;28;955;-77
2022/04/22 03:22:42;;;;;;;;;;;;;;;21.96;27.07;97764.28;5090493;28;1164;-77
2022/04/22 03:25:08;;;;;;;;;;;;;;;21.30;28.01;97763.09;5058989;28;887;-77
2022/04/22 03:27:33;;;;;;;;;;;;;;;21.15;28.37;97757.00;5090211;28;1065;-78
2022/04/22 03:29:59;;;;;;;;;;;;;;;20.99;28.32;97754.25;5059069;28;1910;-78
2022/04/22 03:32:25;;;;;;;;;;;;;;;21.32;28.49;97750.06;5059066;28;904;-78
2022/04/22 03:34:50;;;;;;;;;;;;;;;21.76;27.86;97756.03;5059256;28;772;-78
2022/04/22 03:37:16;;;;;;;;;;;;;;;22.15;26.98;97759.69;5058913;28;1353;-78
2022/04/22 03:39:41;;;;;;;;;;;;;;;21.62;27.57;97762.13;5058968;28;926;-78
2022/04/22 03:42:07;;;;;;;;;;;;;;;21.39;28.04;97759.59;5058608;28;1123;-78
2022/04/22 03:44:32;;;;;;;;;;;;;;;21.08;28.21;97758.00;5058468;28;1089;-78
2022/04/22 03:46:58;;;;;;;;;;;;;;;21.35;28.76;97747.56;5058911;28;771;-78
2022/04/22 03:49:23;;;;;;;;;;;;;;;21.74;27.65;97758.50;5075877;28;1914;-78
2022/04/22 03:51:49;;;;;;;;;;;;;;;22.19;26.90;97754.69;5075717;28;974;-77
2022/04/22 03:54:18;;;;;;;;;;;;;;;21.78;27.31;97758.41;5076091;28;953;-78
2022/04/22 03:59:27;;;;;;;;;;;;;;;21.00;28.70;97755.84;5076148;28;944;-78
2022/04/22 04:01:53;;;;;;;;;;;;;;;21.52;28.22;97746.25;5075950;28;1052;-78
2022/04/22 04:04:19;;;;;;;;;;;;;;;21.94;27.47;97737.69;5075694;28;1014;-78
2022/04/22 04:06:44;;;;;;;;;;;;;;;21.96;27.12;97740.84;5075550;28;1358;-78
2022/04/22 04:17:21;;;;;;;;;;;;;;;21.92;27.22;97740.19;5076014;28;1167;-78
2022/04/22 04:25:15;;;;;;;;;;;;;;;21.16;28.34;97735.16;5057735;28;974;-77
2022/04/22 04:27:40;;;;;;;;;;;;;;;20.98;28.42;97741.31;5058037;28;920;-78
2022/04/22 04:30:07;;;;;;;;;;;;;;;21.43;28.31;97743.28;5057760;28;1902;-78
2022/04/22 04:32:32;;;;;;;;;;;;;;;22.03;27.29;97743.47;5089149;28;973;-78
2022/04/22 04:34:57;;;;;;;;;;;;;;;22.12;27.11;97740.75;5058010;28;907;-78
2022/04/22 04:37:23;;;;;;;;;;;;;;;21.48;27.96;97746.38;5057750;28;902;-78
2022/04/22 04:39:48;;;;;;;;;;;;;;;21.29;28.28;97744.47;5057706;28;890;-78
2022/04/22 04:42:14;;;;;;;;;;;;;;;21.06;28.43;97749.16;5057688;28;910;-77
2022/04/22 04:44:40;;;;;;;;;;;;;;;21.40;28.51;97744.19;5057828;28;946;-78
2022/04/22 04:47:05;;;;;;;;;;;;;;;21.87;27.56;97743.56;5074779;28;980;-78
2022/04/22 04:49:31;;;;;;;;;;;;;;;21.93;27.05;97750.25;5091651;28;1898;-77
2022/04/22 04:51:57;;;;;;;;;;;;;;;21.45;27.93;97752.13;5084229;28;1254;-78
2022/04/22 04:54:23;;;;;;;;;;;;;;;21.24;28.12;97754.34;5094932;28;1269;-78
2022/04/22 04:56:48;;;;;;;;;;;;;;;21.33;28.84;97748.03;5095126;28;1329;-78
2022/04/22 04:59:14;;;;;;;;;;;;;;;21.83;27.71;97752.97;5095235;28;1101;-78
2022/04/22 05:01:39;;;;;;;;;;;;;;;22.14;27.04;97763.75;5094982;28;979;-78
2022/04/22 05:04:05;;;;;;;;;;;;;;;21.56;27.67;97761.09;5077549;28;988;-78
2022/04/22 05:06:30;;;;;;;;;;;;;;;21.27;28.03;97759.09;5095556;28;941;-77
2022/04/22 05:08:56;;;;;;;;;;;;;;;21.08;28.35;97757.19;5095128;28;1009;-78
2022/04/22 05:11:22;;;;;;;;;;;;;;;21.61;27.99;97760.56;5094922;28;1980;-77
2022/04/22 05:13:47;;;;;;;;;;;;;;;22.03;27.27;97764.09;5061163;28;1020;-78
2022/04/22 05:16:13;;;;;;;;;;;;;;;22.07;27.09;97763.94;5094848;28;927;-78
2022/04/22 05:18:40;;;;;;;;;;;;;;;21.39;28.13;97765.25;5081525;28;916;-78
2022/04/22 05:21:05;;;;;;;;;;;;;;;21.27;28.00;97759.09;5077107;28;1004;-78
2022/04/22 05:23:31;;;;;;;;;;;;;;;21.09;28.36;97753.16;5077222;28;748;-78
2022/04/22 05:25:56;;;;;;;;;;;;;;;21.44;28.46;97761.88;5076626;28;909;-77
2022/04/22 05:28:22;;;;;;;;;;;;;;;21.81;27.71;97758.31;5076548;28;1115;-78
2022/04/22 05:33:31;;;;;;;;;;;;;;;21.60;27.98;97770.25;5076726;28;935;-78
2022/04/22 05:35:57;;;;;;;;;;;;;;;21.33;27.99;97770.66;5076640;28;786;-78
2022/04/22 05:38:24;;;;;;;;;;;;;;;21.21;28.32;97783.50;5076072;28;873;-78
2022/04/22 05:40:49;;;;;;;;;;;;;;;21.52;28.60;97781.03;5076342;28;1162;-78
2022/04/22 05:43:15;;;;;;;;;;;;;;;21.94;27.66;97783.00;5076465;28;1046;-78
2022/04/22 05:45:40;;;;;;;;;;;;;;;22.09;27.44;97767.94;5076414;28;900;-78
2022/04/22 05:48:06;;;;;;;;;;;;;;;21.67;27.51;97764.41;5077087;28;852;-78
2022/04/22 05:50:31;;;;;;;;;;;;;;;21.41;28.11;97785.41;5073594;28;1910;-78
2022/04/22 05:52:56;;;;;;;;;;;;;;;21.12;28.63;97779.75;5073792;28;950;-78
2022/04/22 05:55:23;;;;;;;;;;;;;;;21.20;28.91;97781.94;5073883;28;1003;-77
2022/04/22 05:57:48;;;;;;;;;;;;;;;21.69;27.76;97790.22;5073412;28;926;-78
2022/04/22 06:00:15;;;;;;;;;;;;;;;22.18;27.45;97784.28;5073363;28;979;-78
2022/04/22 06:02:41;;;;;;;;;;;;;;;22.22;26.88;97784.16;5073460;28;1027;-78
2022/04/22 06:05:07;;;;;;;;;;;;;;;21.48;27.95;97788.81;5056570;28;866;-78
2022/04/22 06:07:32;;;;;;;;;;;;;;;21.23;28.41;97783.84;5073380;28;963;-78
2022/04/22 06:12:42;;;;;;;;;;;;;;;21.28;28.92;97782.50;5073352;28;984;-78
2022/04/22 06:15:08;;;;;;;;;;;;;;;21.68;28.14;97785.81;5073218;28;1109;-78
2022/04/22 06:17:33;;;;;;;;;;;;;;;22.02;27.59;97795.69;5072976;28;1487;-78
2022/04/22 06:19:59;;;;;;;;;;;;;;;21.82;27.46;97788.22;5056307;28;917;-78
2022/04/22 06:22:25;;;;;;;;;;;;;;;21.31;28.57;97782.44;5075512;28;1055;-78
2022/04/22 06:24:51;;;;;;;;;;;;;;;21.07;28.83;97779.03;5073060;28;986;-77
2022/04/22 06:27:26;;;;;;;;;;;;;;;21.08;28.77;97774.19;5075660;28;1017;-78
2022/04/22 06:29:52;;;;;;;;;;;;;;;21.67;28.17;97775.72;5072672;28;1961;-78
2022/04/22 06:32:18;;;;;;;;;;;;;;;21.99;27.35;97779.59;5053186;28;992;-78
2022/04/22 06:34:44;;;;;;;;;;;;;;;21.69;27.82;97773.22;5052861;28;1078;-78
2022/04/22 06:37:11;;;;;;;;;;;;;;;21.23;28.31;97786.69;5053107;28;1005;-78
2022/04/22 06:45:46;;;;;;;;;;;;;;;21.16;28.37;97803.06;5052723;28;921;-78
2022/04/22 06:47:51;;;;;;;;;;;;;;;21.65;27.82;97806.50;5013243;28;935;-78
2022/04/22 06:50:19;;;;;;;;;;;;;;;21.39;28.25;97816.19;5012375;28;1971;-78
2022/04/22 06:52:46;;;;;;;;;;;;;;;21.10;28.35;97816.97;5012856;28;990;-78
2022/04/22 06:55:13;;;;;;;;;;;;;;;21.43;28.54;97816.88;5013364;28;1316;-79
2022/04/22 06:57:38;;;;;;;;;;;;;;;21.93;27.48;97823.91;5013330;28;1215;-78
2022/04/22 07:00:04;;;;;;;;;;;;;;;22.08;27.14;97822.22;4993329;28;1006;-78
2022/04/22 07:02:30;;;;;;;;;;;;;;;21.62;27.70;97815.94;4997180;28;1004;-78
2022/04/22 07:04:56;;;;;;;;;;;;;;;21.28;28.39;97805.94;5013631;28;1175;-79
2022/04/22 07:07:21;;;;;;;;;;;;;;;20.96;28.49;97798.34;4993295;28;976;-78
2022/04/22 07:09:47;;;;;;;;;;;;;;;21.15;28.32;97785.31;4993458;28;1906;-78
2022/04/22 07:12:13;;;;;;;;;;;;;;;21.50;28.43;97777.03;4977032;28;994;-79
2022/04/22 07:14:38;;;;;;;;;;;;;;;21.91;27.79;97800.88;4993517;28;953;-79
2022/04/22 07:17:04;;;;;;;;;;;;;;;22.19;26.99;97794.38;4974022;28;1120;-78
2022/04/22 07:19:32;;;;;;;;;;;;;;;21.67;27.61;97808.91;4993405;28;990;-79
2022/04/22 07:21:57;;;;;;;;;;;;;;;21.31;28.29;97833.38;4996492;28;1035;-79
2022/04/22 07:24:23;;;;;;;;;;;;;;;21.14;28.82;97834.66;4996343;28;945;-79
2022/04/22 07:26:48;;;;;;;;;;;;;;;21.22;28.80;97852.22;5013044;28;1006;-78
2022/04/22 07:29:14;;;;;;;;;;;;;;;21.68;28.24;97855.81;5013065;28;1014;-78
2022/04/22 07:31:39;;;;;;;;;;;;;;;21.95;27.72;97861.06;5027254;28;1899;-79
2022/04/22 07:34:05;;;;;;;;;;;;;;;21.56;27.89;97865.88;5032530;28;979;-78
2022/04/22 07:36:31;;;;;;;;;;;;;;;21.23;28.61;97871.56;5032852;28;963;-79
2022/04/22 07:38:56;;;;;;;;;;;;;;;21.18;28.67;97869.28;5032400;28;991;-78
2022/04/22 07:41:23;;;;;;;;;;;;;;;21.17;29.08;97873.34;5016143;28;938;-78
2022/04/22 07:46:46;;;;;;;;;;;;;;;22.00;27.39;97866.97;5012525;28;985;-79
2022/04/22 07:49:12;;;;;;;;;;;;;;;21.85;27.50;97871.47;4997981;28;937;-78
2022/04/22 07:51:39;;;;;;;;;;;;;;;21.42;28.38;97877.56;5012725;28;1895;-79
2022/04/22 07:54:04;;;;;;;;;;;;;;;21.08;28.67;97884.50;5025545;28;1068;-79
2022/04/22 07:56:30;;;;;;;;;;;;;;;20.97;28.87;97881.16;5052645;28;1158;-79
2022/04/22 07:58:56;;;;;;;;;;;;;;;21.16;29.15;97891.59;5051914;28;1248;-78
2022/04/22 08:01:21;;;;;;;;;;;;;;;21.58;28.35;97891.69;5052121;28;1240;-80
2022/04/22 08:03:47;;;;;;;;;;;;;;;21.89;27.87;97900.50;5064993;28;1419;-79
2022/04/22 08:06:12;;;;;;;;;;;;;;;21.46;28.30;97889.59;5064880;28;1244;-79
2022/04/22 08:08:38;;;;;;;;;;;;;;;21.11;28.70;97889.28;5066451;28;1282;-78
2022/04/22 08:11:03;;;;;;;;;;;;;;;21.07;28.72;97885.75;5065330;28;1975;-79
2022/04/22 08:13:29;;;;;;;;;;;;;;;21.26;29.06;97890.50;5072763;28;1232;-78
2022/04/22 08:15:55;;;;;;;;;;;;;;;21.70;28.19;97882.41;5076267;28;1208;-79
2022/04/22 08:18:20;;;;;;;;;;;;;;;22.02;27.81;97881.50;5069180;28;1351;-79
2022/04/22 08:20:45;;;;;;;;;;;;;;;21.44;28.08;97880.75;5070378;28;1193;-80
2022/04/22 08:23:11;;;;;;;;;;;;;;;21.10;28.73;97884.09;5081591;28;1094;-79
2022/04/22 08:25:37;;;;;;;;;;;;;;;20.86;29.22;97886.31;5095908;28;1067;-79
2022/04/22 08:28:03;;;;;;;;;;;;;;;21.04;29.36;97884.63;5061001;28;1289;-78
2022/04/22 08:30:28;;;;;;;;;;;;;;;21.66;28.13;97884.59;5095638;28;1918;-77
2022/04/22 08:32:54;;;;;;;;;;;;;;;21.91;27.83;97885.88;5095214;28;1304;-77
2022/04/22 08:35:19;;;;;;;;;;;;;;;21.59;27.91;97887.59;5095914;28;1329;-77
2022/04/22 08:37:45;;;;;;;;;;;;;;;21.17;28.56;97879.00;5095029;28;1224;-78
2022/04/22 08:40:10;;;;;;;;;;;;;;;21.04;28.53;97881.00;5093843;28;1310;-77
2022/04/22 08:42:37;;;;;;;;;;;;;;;21.24;29.06;97873.19;5066796;28;1249;-78
2022/04/22 08:45:03;;;;;;;;;;;;;;;21.69;28.23;97883.66;5077376;28;1224;-78
2022/04/22 08:50:16;;;;;;;;;;;;;;;21.52;27.88;97877.28;5077635;28;1910;-78
2022/04/22 08:52:42;;;;;;;;;;;;;;;21.18;28.58;97877.78;5077538;28;914;-77
2022/04/22 08:55:08;;;;;;;;;;;;;;;21.09;28.46;97869.16;5058698;28;978;-78
2022/04/22 08:57:34;;;;;;;;;;;;;;;21.21;29.29;97861.94;5078027;28;884;-77
2022/04/22 09:00:00;;;;;;;;;;;;;;;21.60;28.40;97860.88;5077889;28;927;-78
2022/04/22 09:02:26;;;;;;;;;;;;;;;21.93;27.84;97849.41;5077734;28;881;-78
2022/04/22 09:04:51;;;;;;;;;;;;;;;21.45;28.23;97854.03;5077399;28;904;-77
2022/04/22 09:07:18;;;;;;;;;;;;;;;21.24;28.64;97847.72;5077627;28;915;-77
2022/04/22 09:09:49;;;;;;;;;;;;;;;21.10;28.73;97828.28;5077381;28;1910;-78
2022/04/22 09:12:15;;;;;;;;;;;;;;;21.16;29.32;97832.16;5077461;28;899;-78
2022/04/22 09:14:47;;;;;;;;;;;;;;;21.64;28.62;97823.97;5076000;28;842;-78
2022/04/22 09:17:32;;;;;;;;;;;;;;;21.96;27.85;97817.31;5074791;28;1045;-78
2022/04/22 09:19:58;;;;;;;;;;;;;;;21.41;28.40;97808.06;5075682;28;982;-78
2022/04/22 09:22:24;;;;;;;;;;;;;;;21.06;28.91;97804.97;5077386;28;998;-78
2022/04/22 09:24:50;;;;;;;;;;;;;;;21.07;28.84;97795.22;5074179;28;999;-78
2022/04/22 09:27:16;;;;;;;;;;;;;;;21.22;29.22;97790.75;5054493;28;1029;-77
2022/04/22 09:29:41;;;;;;;;;;;;;;;21.63;28.31;97783.53;5054079;28;1914;-78
2022/04/22 09:32:09;;;;;;;;;;;;;;;21.99;27.58;97779.59;5054669;28;965;-77
2022/04/22 09:34:37;;;;;;;;;;;;;;;21.59;28.38;97774.34;5037517;28;980;-77
2022/04/22 09:42:54;;;;;;;;;;;;;;;21.24;29.19;97768.47;5020358;28;948;-77
2022/04/22 09:45:19;;;;;;;;;;;;;;;21.65;28.16;97751.94;5013892;28;1000;-78
2022/04/22 09:47:55;;;;;;;;;;;;;;;21.88;27.97;97745.16;5014550;28;1114;-76
2022/04/22 09:50:23;;;;;;;;;;;;;;;21.39;28.34;97737.72;4974626;28;1971;-78
2022/04/22 09:52:48;;;;;;;;;;;;;;;21.13;28.85;97722.69;4972946;28;1040;-78
2022/04/22 09:55:15;;;;;;;;;;;;;;;20.92;29.09;97703.53;4917344;29;982;-77
2022/04/22 09:57:56;;;;;;;;;;;;;;;21.35;29.30;97668.31;4922536;29;985;-77
2022/04/22 10:00:25;;;;;;;;;;;;;;;21.84;27.98;97637.63;4920696;29;1000;-78
2022/04/22 10:02:51;;;;;;;;;;;;;;;21.95;27.72;97620.28;4936702;29;958;-77
2022/04/22 10:05:17;;;;;;;;;;;;;;;21.36;28.43;97636.75;4936607;29;1063;-78
2022/04/22 10:07:43;;;;;;;;;;;;;;;21.18;28.90;97664.78;4936483;29;871;-77
2022/04/22 10:10:08;;;;;;;;;;;;;;;21.09;28.90;97679.59;4922560;29;1984;-78
2022/04/22 10:12:34;;;;;;;;;;;;;;;21.06;29.36;97688.97;4917423;29;1296;-77
2022/04/22 10:15:01;;;;;;;;;;;;;;;21.50;28.51;97703.44;4911209;29;2039;-77
2022/04/22 10:17:26;;;;;;;;;;;;;;;21.83;28.02;97704.81;4919070;29;988;-77
2022/04/22 10:19:52;;;;;;;;;;;;;;;22.11;27.84;97696.66;4936430;29;991;-77
2022/04/22 10:22:18;;;;;;;;;;;;;;;21.91;27.93;97693.25;4920092;29;1123;-78
2022/04/22 10:24:43;;;;;;;;;;;;;;;21.29;28.85;97702.81;4916656;29;1370;-77
2022/04/22 10:27:10;;;;;;;;;;;;;;;21.20;29.08;97713.25;4942541;28;1014;-78
2022/04/22 10:29:36;;;;;;;;;;;;;;;20.97;29.33;97706.59;4958425;28;1972;-77
2022/04/22 10:32:05;;;;;;;;;;;;;;;21.33;29.04;97700.72;4974085;28;981;-78
2022/04/22 10:34:40;;;;;;;;;;;;;;;21.89;28.24;97695.75;4974579;28;965;-77
2022/04/22 10:37:14;;;;;;;;;;;;;;;21.63;28.22;97712.75;4974391;28;935;-77
2022/04/22 10:39:40;;;;;;;;;;;;;;;21.17;28.97;97723.41;4974299;28;936;-77
2022/04/22 10:42:13;;;;;;;;;;;;;;;21.08;28.86;97728.91;4991774;28;888;-77
2022/04/22 10:47:38;;;;;;;;;;;;;;;21.50;28.71;97726.91;5013006;28;891;-76
2022/04/22 10:50:21;;;;;;;;;;;;;;;21.87;28.21;97726.59;5033738;28;1996;-77
2022/04/22 10:53:01;;;;;;;;;;;;;;;21.40;28.71;97724.38;5036024;28;983;-77
2022/04/22 10:55:28;;;;;;;;;;;;;;;21.13;29.32;97731.19;5005279;28;911;-77
2022/04/22 10:58:12;;;;;;;;;;;;;;;20.99;29.28;97725.97;4973911;28;935;-77
2022/04/22 11:00:38;;;;;;;;;;;;;;;21.47;29.22;97718.50;4973822;28;920;-77
2022/04/22 11:03:08;;;;;;;;;;;;;;;21.80;28.42;97714.22;4973834;28;926;-77
2022/04/22 11:05:34;;;;;;;;;;;;;;;21.99;28.03;97708.78;4993330;28;974;-77
2022/04/22 11:08:01;;;;;;;;;;;;;;;21.33;28.97;97714.84;4993232;28;990;-77
2022/04/22 11:10:27;;;;;;;;;;;;;;;20.96;29.38;97710.66;4961287;28;1911;-77
2022/04/22 11:12:58;;;;;;;;;;;;;;;21.05;29.31;97718.50;4993270;28;985;-77
2022/04/22 11:15:42;;;;;;;;;;;;;;;21.47;28.90;97715.69;4993328;28;967;-76
2022/04/22 11:18:11;;;;;;;;;;;;;;;21.92;28.14;97711.84;4993131;28;952;-78
2022/04/22 11:20:37;;;;;;;;;;;;;;;21.64;28.24;97702.22;4993573;28;1002;-77
2022/04/22 11:23:05;;;;;;;;;;;;;;;21.24;28.79;97713.91;4993769;28;1181;-78
2022/04/22 11:25:30;;;;;;;;;;;;;;;20.99;29.39;97723.13;4993129;28;1026;-77
2022/04/22 11:27:56;;;;;;;;;;;;;;;21.06;29.21;97725.75;4994849;28;1501;-77
2022/04/22 11:30:22;;;;;;;;;;;;;;;20.91;29.48;97730.22;5012497;28;1894;-77
2022/04/22 11:32:49;;;;;;;;;;;;;;;21.42;29.32;97724.72;5014168;28;1439;-77
2022/04/22 11:35:18;;;;;;;;;;;;;;;21.82;28.72;97719.44;5052448;28;1039;-77
2022/04/22 11:37:44;;;;;;;;;;;;;;;21.52;28.56;97724.41;5014587;28;1001;-77
2022/04/22 11:40:09;;;;;;;;;;;;;;;21.26;29.35;97728.41;5016737;28;946;-77
2022/04/22 11:42:44;;;;;;;;;;;;;;;21.05;29.48;97727.00;4996792;28;886;-77
2022/04/22 11:45:12;;;;;;;;;;;;;;;20.97;29.98;97722.78;4996892;28;967;-76
2022/04/22 11:47:38;;;;;;;;;;;;;;;21.73;28.86;97711.63;4996823;28;1034;-77
2022/04/22 11:50:04;;;;;;;;;;;;;;;21.97;28.17;97705.63;4996639;28;1879;-77
2022/04/22 11:52:30;;;;;;;;;;;;;;;21.70;28.38;97711.72;5013288;28;1275;-77
2022/04/22 11:55:05;;;;;;;;;;;;;;;21.28;29.14;97704.06;5036061;28;989;-77
2022/04/22 11:57:37;;;;;;;;;;;;;;;21.06;29.31;97703.91;5016053;28;970;-77
2022/04/22 12:05:37;;;;;;;;;;;;;;;21.75;28.83;97692.13;4976802;28;1029;-77
2022/04/22 12:08:07;;;;;;;;;;;;;;;21.70;28.48;97689.84;4977124;28;1012;-77
2022/04/22 12:10:33;;;;;;;;;;;;;;;21.20;29.32;97694.22;4944891;28;1910;-77
2022/04/22 12:13:02;;;;;;;;;;;;;;;21.28;29.21;97681.44;4976635;28;944;-77
2022/04/22 12:15:27;;;;;;;;;;;;;;;21.14;29.56;97676.22;4968482;28;966;-77
2022/04/22 12:17:53;;;;;;;;;;;;;;;21.61;29.14;97672.78;4938286;29;1035;-77
2022/04/22 12:20:18;;;;;;;;;;;;;;;21.94;28.45;97661.19;4949990;29;1008;-77
2022/04/22 12:22:44;;;;;;;;;;;;;;;21.65;28.93;97653.63;4957318;28;1115;-77
2022/04/22 12:25:13;;;;;;;;;;;;;;;21.38;29.13;97641.97;4960752;28;979;-77
2022/04/22 12:27:39;;;;;;;;;;;;;;;21.17;29.35;97658.31;4957222;29;1000;-77
2022/04/22 12:30:11;;;;;;;;;;;;;;;21.05;29.70;97662.72;4922339;29;1978;-77
2022/04/22 12:32:37;;;;;;;;;;;;;;;21.56;29.41;97667.69;4951300;29;1089;-76
2022/04/22 12:35:12;;;;;;;;;;;;;;;21.96;28.51;97672.84;4950286;28;1195;-77
2022/04/22 12:37:42;;;;;;;;;;;;;;;21.57;28.80;97672.09;4973223;28;1113;-76
2022/04/22 12:40:08;;;;;;;;;;;;;;;21.17;29.58;97669.66;4995773;28;993;-76
2022/04/22 12:42:35;;;;;;;;;;;;;;;21.05;29.73;97673.25;4995975;28;1020;-76
2022/04/22 12:53:43;;;;;;;;;;;;;;;21.24;29.54;97669.44;4995245;28;939;-76
2022/04/22 12:56:09;;;;;;;;;;;;;;;21.25;29.47;97659.72;4995725;28;948;-76
2022/04/22 12:58:52;;;;;;;;;;;;;;;21.07;29.55;97673.59;4985985;28;958;-77
2022/04/22 13:01:19;;;;;;;;;;;;;;;21.33;30.10;97669.56;4976251;28;1017;-77
2022/04/22 13:03:44;;;;;;;;;;;;;;;21.87;28.85;97658.59;5009783;28;897;-77
2022/04/22 13:06:09;;;;;;;;;;;;;;;21.99;28.34;97661.41;5035040;28;996;-77
2022/04/22 13:08:35;;;;;;;;;;;;;;;21.46;29.18;97654.66;5070433;28;956;-77
2022/04/22 13:11:02;;;;;;;;;;;;;;;21.04;29.79;97658.31;5095188;28;1901;-77
2022/04/22 13:13:27;;;;;;;;;;;;;;;20.97;30.04;97654.88;5094837;28;1641;-77
2022/04/22 13:15:53;;;;;;;;;;;;;;;21.10;29.80;97652.09;5094916;28;929;-76
2022/04/22 13:18:20;;;;;;;;;;;;;;;21.71;29.21;97646.16;5095058;28;905;-77
2022/04/22 13:20:46;;;;;;;;;;;;;;;21.85;28.79;97634.34;5094402;28;1031;-78
2022/04/22 13:23:11;;;;;;;;;;;;;;;21.59;29.04;97638.44;5094348;28;1066;-77
2022/04/22 13:25:37;;;;;;;;;;;;;;;21.20;29.91;97651.78;5073882;28;2242;-77
2022/04/22 13:28:02;;;;;;;;;;;;;;;21.05;29.76;97642.13;5057617;28;1000;-77
2022/04/22 13:30:28;;;;;;;;;;;;;;;21.17;29.70;97634.91;5074158;28;1898;-77
2022/04/22 13:32:53;;;;;;;;;;;;;;;21.34;30.04;97610.94;5074367;28;982;-77
2022/04/22 13:35:20;;;;;;;;;;;;;;;21.75;28.86;97612.84;5074349;28;920;-78
2022/04/22 13:37:46;;;;;;;;;;;;;;;21.83;28.89;97605.69;5073823;28;855;-77
2022/04/22 13:40:11;;;;;;;;;;;;;;;21.35;29.23;97606.06;5074215;28;961;-78
2022/04/22 13:42:37;;;;;;;;;;;;;;;21.15;29.52;97587.25;5058675;28;884;-77
2022/04/22 13:53:14;;;;;;;;;;;;;;;21.94;28.67;97598.88;5053325;28;2150;-77
2022/04/22 13:55:41;;;;;;;;;;;;;;;21.63;29.13;97605.16;5055633;28;1015;-77
2022/04/22 13:58:07;;;;;;;;;;;;;;;21.42;29.52;97611.53;5073484;28;947;-77
2022/04/22 14:00:34;;;;;;;;;;;;;;;21.04;29.89;97604.56;5073495;28;973;-77
2022/04/22 14:03:02;;;;;;;;;;;;;;;21.06;30.23;97589.97;5073692;28;1029;-77
2022/04/22 14:05:49;;;;;;;;;;;;;;;21.52;29.83;97597.03;5013730;28;967;-77
2022/04/22 14:08:14;;;;;;;;;;;;;;;21.89;29.03;97593.78;5013855;28;1037;-77
2022/04/22 14:10:40;;;;;;;;;;;;;;;21.66;28.97;97600.59;5013855;28;1902;-77
2022/04/22 14:13:05;;;;;;;;;;;;;;;21.22;29.74;97592.69;5013360;28;1035;-77
2022/04/22 14:15:31;;;;;;;;;;;;;;;21.17;29.77;97595.28;5013496;28;989;-75